(°F)
59°
60°
62°
62°
61°
58°
54°
(°F)
53°
54°
56°
57°
57°
54°
50°
WNW
WNW
WNW
WNW
WNW
WNW
NW
(mph)
11-25
10-24
9-15
7-18
4-14
4-12
4-5
(in)
0.1
0.1
0
0
0
0
0
(%)
64
57
48
35
35
25
15

Sun elevation

/ 32.1°
sun-icon
UV 1
07:39
18:18
Waning gibbous moon (190°)
18:49
08:18

METAR for Innsbruck (LOWI)

Time Conditions Temperature/
Dewpoint
Wind Visibility Weather Clouds Pressure Change Raw
VFR 57.2°F / 42.8°F 220º 18kt Gust 30kt >10km Light Showers Rain 3.00mm precipitation Vertical Visibility of 0ft.
Scattered Clouds 5000ft
Broken Clouds 6500ft
1011 No Significant change LOWI 211050Z 22018G30KT 9999 -SHRA FEW040 SCT050 BKN065 14/06 Q1011 NOSIG
VFR 59°F / 42.8°F 240º variable 200º to 260º 15kt Gust 25kt >10km Light Showers Rain 3.00mm precipitation Vertical Visibility of 0ft.
Scattered Clouds 5000ft
Broken Clouds 6500ft
1010 No Significant change LOWI 211020Z 24015G25KT 200V260 9999 -SHRA FEW040 SCT050 BKN065 15/06 Q1010 NOSIG
VFR 60.8°F / 44.6°F 250º 10kt >10km - Few Clouds 4000ft
Scattered Clouds 6000ft
Broken Clouds 7000ft
1010 Temporary: Wind 270º 20kt. Gust 30KT. LOWI 210950Z 25010KT 9999 FEW040 SCT060 BKN070 16/07 Q1010 TEMPO 27020G30KT
VFR 55.4°F / 46.4°F 260º 9kt. Wind Shear present on Runway 26. >10km - Few Clouds 4000ft
Scattered Clouds 6000ft
Broken Clouds 8000ft
1010 Temporary: from 0930 Wind 270º 20kt. Gust 30KT. LOWI 210920Z 26009KT 9999 FEW040 SCT060 BKN080 13/08 Q1010 WS R26 TEMPO FM0930 27020G30KT
VFR 53.6°F / 46.4°F 270º 9kt >10km - Few Clouds 4000ft
Scattered Clouds 6000ft
Broken Clouds 9000ft
1009 Temporary: from 0930 Wind 270º 20kt. Gust 30KT. LOWI 210850Z 27009KT 9999 FEW040 SCT060 BKN090 12/08 Q1009 TEMPO FM0930 27020G30KT
VFR 53.6°F / 44.6°F variable 7kt. Wind Shear present on Runway 26. >10km - Few Clouds 4000ft
Scattered Clouds 6000ft
Broken Clouds 9000ft
1009 Temporary: from 0930 Wind 270º 15kt. Gust 30KT. LOWI 210820Z VRB07KT 9999 FEW040 SCT060 BKN090 12/07 Q1009 WS R26 TEMPO FM0930 27015G30KT
VFR 50°F / 44.6°F 260º variable 210º to 290º 8kt. Wind Shear present on Runway 26. >10km - Few Clouds 4000ft
Scattered Clouds 6000ft
Broken Clouds 9000ft
1009 Temporary: from 0930 Wind 270º 18kt. Gust 30KT. LOWI 210750Z 26008KT 210V290 9999 FEW040 SCT060 BKN090 10/07 Q1009 WS R26 TEMPO FM0930 27018G30KT
VFR 48.2°F / 42.8°F 260º variable 210º to 290º 7kt. Wind Shear present on Runway 26. >10km - Few Clouds 4000ft
Scattered Clouds 6000ft
Broken Clouds 9000ft
1009 Temporary: from 0900 Wind 270º 15kt. Gust 30KT. LOWI 210720Z 26007KT 210V290 9999 FEW040 SCT060 BKN090 09/06 Q1009 WS R26 TEMPO FM0900 27015G30KT
VFR 50°F / 42.8°F 240º variable 160º to 270º 9kt. Wind Shear present on Runway 26. >10km - Few Clouds 5000ft
Scattered Clouds 6500ft
Broken Clouds 8500ft
1009 No Significant change LOWI 210650Z 24009KT 160V270 9999 FEW050 SCT065 BKN085 10/06 Q1009 WS R26 NOSIG
VFR 51.8°F / 42.8°F 240º variable 190º to 280º 7kt. Wind Shear present on Runway 26. >10km - Few Clouds 5000ft
Scattered Clouds 6500ft
Broken Clouds 10000ft
1009 Temporary: Wind 120º 15kt. Gust 25KT. LOWI 210620Z 24007KT 190V280 9999 FEW050 SCT065 BKN100 11/06 Q1009 WS R26 TEMPO 12015G25KT
VFR 48.2°F / 42.8°F variable 2kt. Wind Shear present on Runway 26. >10km - Few Clouds 5000ft
Scattered Clouds 6500ft
Broken Clouds 10000ft
1008 Temporary: Wind 120º 15kt. Gust 25KT. LOWI 210550Z VRB02KT 9999 FEW050 SCT065 BKN100 09/06 Q1008 WS R26 TEMPO 12015G25KT
VFR 48.2°F / 42.8°F 240º variable 200º to 270º 6kt. Wind Shear present on Runway 26. >10km - Few Clouds 5000ft
Scattered Clouds 6500ft
Broken Clouds 10000ft
1009 Temporary: Wind 120º 15kt. Gust 25KT. LOWI 210520Z 24006KT 200V270 9999 FEW050 SCT065 BKN100 09/06 Q1009 WS R26 TEMPO 12015G25KT
VFR 48.2°F / 42.8°F 250º variable 200º to 290º 7kt. Wind Shear present on Runway 26. >10km - Scattered Clouds 7000ft
Broken Clouds 12000ft
1009 Temporary: Wind 120º 15kt. Gust 25KT. LOWI 210450Z 25007KT 200V290 9999 SCT070 BKN120 09/06 Q1009 WS R26 TEMPO 12015G25KT
VFR 46.4°F / 42.8°F 270º variable 230º to 300º 11kt. Wind Shear present on Runway 26. >10km - Scattered Clouds 7000ft 1008 Temporary: Wind 120º 15kt. Gust 25KT. LOWI 210420Z 27011KT 230V300 9999 SCT070 08/06 Q1008 WS R26 TEMPO 12015G25KT
VFR 46.4°F / 42.8°F 270º variable 240º to 300º 10kt. Wind Shear present on All Runways. >10km - Scattered Clouds 7000ft 1008 Temporary: Wind 120º 15kt. Gust 25KT. LOWI 210350Z 27010KT 240V300 9999 SCT070 08/06 Q1008 WS ALL RWY TEMPO 12015G25KT
VFR 62.6°F / 42.8°F 130º variable 100º to 160º 10kt >10km - Clear 1008 - LOWI 210320Z AUTO 13010KT 100V160 9999 NCD 17/06 Q1008
VFR 53.6°F / 42.8°F variable 7kt >10km - Clear 1009 - LOWI 210250Z AUTO VRB07KT 9999 NCD 12/06 Q1009
VFR 48.2°F / 42.8°F 270º variable 200º to 300º 11kt >10km - Few Clouds 7000ft 1010 - LOWI 210220Z AUTO 27011KT 200V300 9999 FEW070 09/06 Q1010
VFR 48.2°F / 42.8°F 260º variable 200º to 280º 9kt >10km - Clear 1011 - LOWI 210150Z AUTO 26009KT 200V280 9999 NCD 09/06 Q1011
VFR 50°F / 42.8°F 240º variable 150º to 300º 8kt >10km - Clear 1011 - LOWI 210120Z AUTO 24008KT 150V300 9999 NCD 10/06 Q1011
VFR 48.2°F / 42.8°F 240º variable 210º to 280º 8kt >10km - Clear 1012 - LOWI 210050Z AUTO 24008KT 210V280 9999 NCD 09/06 Q1012
VFR 48.2°F / 42.8°F 260º variable 210º to 290º 7kt >10km - Clear 1012 - LOWI 210020Z AUTO 26007KT 210V290 9999 NCD 09/06 Q1012
VFR 50°F / 42.8°F 260º variable 130º to 300º 6kt >10km - Clear 1012 - LOWI 202350Z AUTO 26006KT 130V300 9999 NCD 10/06 Q1012
VFR 48.2°F / 42.8°F 260º variable 170º to 300º 6kt >10km - Clear 1013 - LOWI 202320Z AUTO 26006KT 170V300 9999 NCD 09/06 Q1013

VFR

57.2°F / 42.8°F

[More]
Wind 220º 18kt Gust 30kt
Visibility >10km
Weather Light Showers Rain 3.00mm precipitation
Clouds Vertical Visibility of 0ft.
Scattered Clouds 5000ft
Broken Clouds 6500ft
Pressure 1011
Change No Significant change
Raw LOWI 211050Z 22018G30KT 9999 -SHRA FEW040 SCT050 BKN065 14/06 Q1011 NOSIG

VFR

59°F / 42.8°F

[More]
Wind 240º variable 200º to 260º 15kt Gust 25kt
Visibility >10km
Weather Light Showers Rain 3.00mm precipitation
Clouds Vertical Visibility of 0ft.
Scattered Clouds 5000ft
Broken Clouds 6500ft
Pressure 1010
Change No Significant change
Raw LOWI 211020Z 24015G25KT 200V260 9999 -SHRA FEW040 SCT050 BKN065 15/06 Q1010 NOSIG

VFR

60.8°F / 44.6°F

[More]
Wind 250º 10kt
Visibility >10km
Weather -
Clouds Few Clouds 4000ft
Scattered Clouds 6000ft
Broken Clouds 7000ft
Pressure 1010
Change Temporary: Wind 270º 20kt. Gust 30KT.
Raw LOWI 210950Z 25010KT 9999 FEW040 SCT060 BKN070 16/07 Q1010 TEMPO 27020G30KT

VFR

55.4°F / 46.4°F

[More]
Wind 260º 9kt. Wind Shear present on Runway 26.
Visibility >10km
Weather -
Clouds Few Clouds 4000ft
Scattered Clouds 6000ft
Broken Clouds 8000ft
Pressure 1010
Change Temporary: from 0930 Wind 270º 20kt. Gust 30KT.
Raw LOWI 210920Z 26009KT 9999 FEW040 SCT060 BKN080 13/08 Q1010 WS R26 TEMPO FM0930 27020G30KT

VFR

53.6°F / 46.4°F

[More]
Wind 270º 9kt
Visibility >10km
Weather -
Clouds Few Clouds 4000ft
Scattered Clouds 6000ft
Broken Clouds 9000ft
Pressure 1009
Change Temporary: from 0930 Wind 270º 20kt. Gust 30KT.
Raw LOWI 210850Z 27009KT 9999 FEW040 SCT060 BKN090 12/08 Q1009 TEMPO FM0930 27020G30KT

VFR

53.6°F / 44.6°F

[More]
Wind variable 7kt. Wind Shear present on Runway 26.
Visibility >10km
Weather -
Clouds Few Clouds 4000ft
Scattered Clouds 6000ft
Broken Clouds 9000ft
Pressure 1009
Change Temporary: from 0930 Wind 270º 15kt. Gust 30KT.
Raw LOWI 210820Z VRB07KT 9999 FEW040 SCT060 BKN090 12/07 Q1009 WS R26 TEMPO FM0930 27015G30KT

VFR

50°F / 44.6°F

[More]
Wind 260º variable 210º to 290º 8kt. Wind Shear present on Runway 26.
Visibility >10km
Weather -
Clouds Few Clouds 4000ft
Scattered Clouds 6000ft
Broken Clouds 9000ft
Pressure 1009
Change Temporary: from 0930 Wind 270º 18kt. Gust 30KT.
Raw LOWI 210750Z 26008KT 210V290 9999 FEW040 SCT060 BKN090 10/07 Q1009 WS R26 TEMPO FM0930 27018G30KT

VFR

48.2°F / 42.8°F

[More]
Wind 260º variable 210º to 290º 7kt. Wind Shear present on Runway 26.
Visibility >10km
Weather -
Clouds Few Clouds 4000ft
Scattered Clouds 6000ft
Broken Clouds 9000ft
Pressure 1009
Change Temporary: from 0900 Wind 270º 15kt. Gust 30KT.
Raw LOWI 210720Z 26007KT 210V290 9999 FEW040 SCT060 BKN090 09/06 Q1009 WS R26 TEMPO FM0900 27015G30KT

VFR

50°F / 42.8°F

[More]
Wind 240º variable 160º to 270º 9kt. Wind Shear present on Runway 26.
Visibility >10km
Weather -
Clouds Few Clouds 5000ft
Scattered Clouds 6500ft
Broken Clouds 8500ft
Pressure 1009
Change No Significant change
Raw LOWI 210650Z 24009KT 160V270 9999 FEW050 SCT065 BKN085 10/06 Q1009 WS R26 NOSIG

VFR

51.8°F / 42.8°F

[More]
Wind 240º variable 190º to 280º 7kt. Wind Shear present on Runway 26.
Visibility >10km
Weather -
Clouds Few Clouds 5000ft
Scattered Clouds 6500ft
Broken Clouds 10000ft
Pressure 1009
Change Temporary: Wind 120º 15kt. Gust 25KT.
Raw LOWI 210620Z 24007KT 190V280 9999 FEW050 SCT065 BKN100 11/06 Q1009 WS R26 TEMPO 12015G25KT

VFR

48.2°F / 42.8°F

[More]
Wind variable 2kt. Wind Shear present on Runway 26.
Visibility >10km
Weather -
Clouds Few Clouds 5000ft
Scattered Clouds 6500ft
Broken Clouds 10000ft
Pressure 1008
Change Temporary: Wind 120º 15kt. Gust 25KT.
Raw LOWI 210550Z VRB02KT 9999 FEW050 SCT065 BKN100 09/06 Q1008 WS R26 TEMPO 12015G25KT

VFR

48.2°F / 42.8°F

[More]
Wind 240º variable 200º to 270º 6kt. Wind Shear present on Runway 26.
Visibility >10km
Weather -
Clouds Few Clouds 5000ft
Scattered Clouds 6500ft
Broken Clouds 10000ft
Pressure 1009
Change Temporary: Wind 120º 15kt. Gust 25KT.
Raw LOWI 210520Z 24006KT 200V270 9999 FEW050 SCT065 BKN100 09/06 Q1009 WS R26 TEMPO 12015G25KT

VFR

48.2°F / 42.8°F

[More]
Wind 250º variable 200º to 290º 7kt. Wind Shear present on Runway 26.
Visibility >10km
Weather -
Clouds Scattered Clouds 7000ft
Broken Clouds 12000ft
Pressure 1009
Change Temporary: Wind 120º 15kt. Gust 25KT.
Raw LOWI 210450Z 25007KT 200V290 9999 SCT070 BKN120 09/06 Q1009 WS R26 TEMPO 12015G25KT

VFR

46.4°F / 42.8°F

[More]
Wind 270º variable 230º to 300º 11kt. Wind Shear present on Runway 26.
Visibility >10km
Weather -
Clouds Scattered Clouds 7000ft
Pressure 1008
Change Temporary: Wind 120º 15kt. Gust 25KT.
Raw LOWI 210420Z 27011KT 230V300 9999 SCT070 08/06 Q1008 WS R26 TEMPO 12015G25KT

VFR

46.4°F / 42.8°F

[More]
Wind 270º variable 240º to 300º 10kt. Wind Shear present on All Runways.
Visibility >10km
Weather -
Clouds Scattered Clouds 7000ft
Pressure 1008
Change Temporary: Wind 120º 15kt. Gust 25KT.
Raw LOWI 210350Z 27010KT 240V300 9999 SCT070 08/06 Q1008 WS ALL RWY TEMPO 12015G25KT

VFR

62.6°F / 42.8°F

[More]
Wind 130º variable 100º to 160º 10kt
Visibility >10km
Weather -
Clouds Clear
Pressure 1008
Change -
Raw LOWI 210320Z AUTO 13010KT 100V160 9999 NCD 17/06 Q1008

VFR

53.6°F / 42.8°F

[More]
Wind variable 7kt
Visibility >10km
Weather -
Clouds Clear
Pressure 1009
Change -
Raw LOWI 210250Z AUTO VRB07KT 9999 NCD 12/06 Q1009

VFR

48.2°F / 42.8°F

[More]
Wind 270º variable 200º to 300º 11kt
Visibility >10km
Weather -
Clouds Few Clouds 7000ft
Pressure 1010
Change -
Raw LOWI 210220Z AUTO 27011KT 200V300 9999 FEW070 09/06 Q1010

VFR

48.2°F / 42.8°F

[More]
Wind 260º variable 200º to 280º 9kt
Visibility >10km
Weather -
Clouds Clear
Pressure 1011
Change -
Raw LOWI 210150Z AUTO 26009KT 200V280 9999 NCD 09/06 Q1011

VFR

50°F / 42.8°F

[More]
Wind 240º variable 150º to 300º 8kt
Visibility >10km
Weather -
Clouds Clear
Pressure 1011
Change -
Raw LOWI 210120Z AUTO 24008KT 150V300 9999 NCD 10/06 Q1011

VFR

48.2°F / 42.8°F

[More]
Wind 240º variable 210º to 280º 8kt
Visibility >10km
Weather -
Clouds Clear
Pressure 1012
Change -
Raw LOWI 210050Z AUTO 24008KT 210V280 9999 NCD 09/06 Q1012

VFR

48.2°F / 42.8°F

[More]
Wind 260º variable 210º to 290º 7kt
Visibility >10km
Weather -
Clouds Clear
Pressure 1012
Change -
Raw LOWI 210020Z AUTO 26007KT 210V290 9999 NCD 09/06 Q1012

VFR

50°F / 42.8°F

[More]
Wind 260º variable 130º to 300º 6kt
Visibility >10km
Weather -
Clouds Clear
Pressure 1012
Change -
Raw LOWI 202350Z AUTO 26006KT 130V300 9999 NCD 10/06 Q1012

VFR

48.2°F / 42.8°F

[More]
Wind 260º variable 170º to 300º 6kt
Visibility >10km
Weather -
Clouds Clear
Pressure 1013
Change -
Raw LOWI 202320Z AUTO 26006KT 170V300 9999 NCD 09/06 Q1013

TAF for Innsbruck (LOWI)

From till


Maximum Temperature 16ºC on . Minimum Temperature 7ºC on .
From till Wind 270º 7kt. Visibility 10km or more. Scattered Clouds 5000ft. Broken Clouds 7000ft.
With 30% probability, Temporarly from till Wind 120º 15kt. Gust 25kt.
Temporarly from till Wind 270º 15kt. Gust 30kt. Showers Rain .
With 40% probability, Temporarly from till Wind 270º 25kt. Gust 50kt.
Temporarly from till Wind 270º 17kt.

Raw: TAF LOWI 210515Z 2106/2206 27007KT 9999 SCT050 BKN070 TX16/2114Z TN07/2205Z PROB30 TEMPO 2106/2109 12015G25KT TEMPO 2108/2116 27015G30KT SHRA PROB40 TEMPO 2109/2113 27025G50KT TEMPO 2116/2124 27017KT

Current satellite and rain images for Innsbruck, Austria

The location marker is placed on Innsbruck. [More]

The real-time satellite image combines visible light during daytime with infrared radiation during nighttime. At night, the image is not dark as infrared radiation can detect temperature differences. Unfortunately, low clouds and fog are difficult to distinguish from ground temperatures and thus can be almost invisible during the night. Meteosat satellite images for Europe are updated in real-time every 5 minutes. GOES-16/GOES-17 (North & South America) and Himawari (Asia) images update every 10 minutes.

Precipitation is estimated from radar and satellites. At night precipitation estimates from satellites are less accurate than during daytime. Orange crosses mark places where lightning was detected (over Europe).

Copyright 2021 EUMETSAT / meteoblue. Lightning data provided by nowcast.

Radar for Innsbruck

Drizzle
Light
Moderate
Heavy
Very Heavy
Hail

The location marker is placed on Innsbruck. This animation shows the precipitation radar for the last hour, as well as a 2h forecast. Drizzle or light snow fall might be invisible for the radar. Precipitation intensity is colour coded, ranging from light blue to orange.
Copyright 2021 Deutscher Wetterdienst / meteoblue.